createdAt,value
2023-01-04T00:01:05.093Z,19.85
2023-01-04T00:03:32.492Z,21.27
2023-01-04T00:06:02.933Z,21.88
2023-01-04T00:08:29.772Z,20.10
2023-01-04T00:11:04.262Z,20.45
2023-01-04T00:13:31.798Z,20.13
2023-01-04T00:16:03.899Z,18.67
2023-01-04T00:18:36.173Z,19.58
2023-01-04T00:23:38.593Z,19.80
2023-01-04T00:26:14.104Z,17.42
2023-01-04T00:28:41.533Z,18.42
2023-01-04T00:31:10.973Z,17.10
2023-01-04T00:33:37.979Z,18.95
2023-01-04T00:36:13.936Z,20.33
2023-01-04T00:38:42.098Z,18.95
2023-01-04T00:41:23.182Z,18.27
2023-01-04T00:43:57.176Z,22.20
2023-01-04T00:46:23.893Z,21.83
2023-01-04T00:48:51.853Z,19.05
2023-01-04T00:51:22.051Z,18.73
2023-01-04T00:53:48.843Z,17.80
2023-01-04T00:56:15.590Z,18.50
2023-01-04T00:58:42.328Z,20.23
2023-01-04T01:01:09.348Z,19.65
2023-01-04T01:03:38.617Z,20.98
2023-01-04T01:06:07.856Z,20.90
2023-01-04T01:08:35.311Z,20.38
2023-01-04T01:11:10.227Z,23.42
2023-01-04T01:13:38.046Z,21.33
2023-01-04T01:16:10.625Z,19.85
2023-01-04T01:18:39.374Z,22.08
2023-01-04T01:23:34.162Z,19.38
2023-01-04T01:26:06.209Z,23.35
2023-01-04T01:28:34.766Z,20.17
2023-01-04T01:33:37.498Z,17.65
2023-01-04T01:36:05.761Z,23.70
2023-01-04T01:38:32.783Z,25.48
2023-01-04T01:40:59.939Z,25.10
2023-01-04T01:43:56.262Z,24.10
2023-01-04T01:46:31.429Z,25.95
2023-01-04T01:49:14.749Z,27.45
2023-01-04T01:51:42.813Z,25.15
2023-01-04T01:54:26.746Z,22.05
2023-01-04T01:56:55.902Z,20.50
2023-01-04T01:59:23.037Z,20.45
2023-01-04T02:01:49.978Z,20.42
2023-01-04T02:04:17.478Z,18.27
2023-01-04T02:06:49.784Z,18.90
2023-01-04T02:09:17.719Z,18.50
2023-01-04T02:11:44.586Z,17.90
2023-01-04T02:14:28.660Z,19.05
2023-01-04T02:17:01.129Z,18.75
2023-01-04T02:20:08.294Z,18.20
2023-01-04T02:22:56.845Z,18.23
2023-01-04T02:25:54.229Z,17.55
2023-01-04T02:28:58.229Z,18.55
2023-01-04T02:31:36.841Z,17.77
2023-01-04T02:34:42.445Z,20.65
2023-01-04T02:37:21.176Z,22.27
2023-01-04T02:40:09.127Z,24.08
2023-01-04T02:43:21.228Z,24.98
2023-01-04T02:46:08.353Z,25.23
2023-01-04T02:51:31.126Z,20.33
2023-01-04T02:54:02.377Z,24.50
2023-01-04T02:56:37.705Z,23.00
2023-01-04T02:59:46.338Z,21.83
2023-01-04T03:03:12.654Z,24.13
2023-01-04T03:06:17.794Z,23.88
2023-01-04T03:08:59.189Z,23.58
2023-01-04T03:11:55.606Z,24.33
2023-01-04T03:14:31.479Z,24.25
2023-01-04T03:17:04.082Z,24.65
2023-01-04T03:19:50.684Z,22.55
2023-01-04T03:22:49.062Z,23.35
2023-01-04T03:25:39.027Z,27.23
2023-01-04T03:28:25.863Z,24.75
2023-01-04T03:31:20.892Z,26.23
2023-01-04T03:34:06.075Z,23.05
2023-01-04T03:36:45.391Z,23.00
2023-01-04T03:39:43.675Z,23.05
2023-01-04T03:42:48.632Z,24.38
2023-01-04T03:45:42.100Z,23.45
2023-01-04T03:48:29.260Z,23.80
2023-01-04T03:53:38.020Z,30.67
2023-01-04T03:56:07.421Z,25.08
2023-01-04T03:58:35.090Z,23.85
2023-01-04T04:01:04.540Z,22.73
2023-01-04T04:03:50.801Z,22.77
2023-01-04T04:06:36.064Z,25.40
2023-01-04T04:09:04.297Z,22.02
2023-01-04T04:11:31.065Z,58.15
2023-01-04T04:13:58.406Z,37.17
2023-01-04T04:16:25.555Z,31.13
2023-01-04T04:18:52.561Z,29.45
2023-01-04T04:21:19.360Z,29.33
2023-01-04T04:23:46.173Z,32.88
2023-01-04T04:26:12.867Z,29.75
2023-01-04T04:28:39.701Z,31.80
2023-01-04T04:31:07.017Z,31.30
2023-01-04T04:33:33.756Z,34.70
2023-01-04T04:36:00.522Z,29.65
2023-01-04T04:38:27.286Z,28.23
2023-01-04T04:41:12.804Z,33.00
2023-01-04T04:43:39.526Z,29.95
2023-01-04T04:46:06.487Z,30.42
2023-01-04T04:48:33.364Z,30.20
2023-01-04T04:51:00.268Z,27.05
2023-01-04T04:53:27.009Z,24.23
2023-01-04T04:55:54.441Z,23.88
2023-01-04T04:58:21.647Z,23.33
2023-01-04T05:00:48.452Z,22.88
2023-01-04T05:03:15.329Z,21.88
2023-01-04T05:05:42.768Z,21.25
2023-01-04T05:08:09.550Z,21.77
2023-01-04T05:10:37.705Z,20.33
2023-01-04T05:13:06.859Z,20.73
2023-01-04T05:15:37.021Z,20.35
2023-01-04T05:18:05.220Z,23.77
2023-01-04T05:20:32.476Z,21.35
2023-01-04T05:22:59.314Z,23.38
2023-01-04T05:25:26.245Z,23.42
2023-01-04T05:27:53.107Z,22.60
2023-01-04T05:30:38.893Z,21.90
2023-01-04T05:33:06.962Z,19.25
2023-01-04T05:35:33.717Z,21.33
2023-01-04T05:38:00.662Z,20.25
2023-01-04T05:40:27.477Z,21.88
2023-01-04T05:42:54.250Z,23.30
2023-01-04T05:45:21.292Z,22.63
2023-01-04T05:47:52.819Z,26.17
2023-01-04T05:50:21.393Z,24.77
2023-01-04T05:52:48.782Z,29.88
2023-01-04T05:55:15.992Z,30.77
2023-01-04T05:57:43.232Z,38.08
2023-01-04T06:00:11.773Z,38.70
2023-01-04T06:02:42.978Z,29.02
2023-01-04T06:07:38.892Z,24.42
2023-01-04T06:10:10.386Z,30.60
2023-01-04T06:12:37.738Z,30.17
2023-01-04T06:15:05.992Z,25.38
2023-01-04T06:17:33.090Z,27.33
2023-01-04T06:19:59.936Z,26.13
2023-01-04T06:22:28.174Z,25.38
2023-01-04T06:24:55.098Z,26.05
2023-01-04T06:27:21.963Z,32.80
2023-01-04T06:29:48.699Z,38.83
2023-01-04T06:32:15.549Z,45.78
2023-01-04T06:34:42.361Z,43.20
2023-01-04T06:37:09.958Z,30.40
2023-01-04T06:39:37.384Z,34.90
2023-01-04T06:42:06.838Z,35.28
2023-01-04T06:44:34.188Z,40.75
2023-01-04T06:47:00.897Z,63.30
2023-01-04T06:49:27.669Z,38.40
2023-01-04T06:51:54.442Z,34.78
2023-01-04T06:54:21.190Z,25.20
2023-01-04T06:56:47.920Z,29.85
2023-01-04T06:59:14.671Z,23.83
2023-01-04T07:01:41.588Z,23.30
2023-01-04T07:04:08.514Z,23.27
2023-01-04T07:06:35.341Z,24.38
2023-01-04T07:09:02.091Z,27.65
2023-01-04T07:11:28.769Z,23.27
2023-01-04T07:13:55.524Z,26.58
2023-01-04T07:16:22.319Z,22.02
2023-01-04T07:18:49.705Z,23.90
2023-01-04T07:21:16.433Z,20.20
2023-01-04T07:23:44.307Z,20.83
2023-01-04T07:26:11.000Z,19.33
2023-01-04T07:29:13.150Z,21.35
2023-01-04T07:31:40.020Z,20.55
2023-01-04T07:34:06.937Z,20.67
2023-01-04T07:36:33.668Z,19.90
2023-01-04T07:39:01.312Z,18.42
2023-01-04T07:41:28.083Z,26.35
2023-01-04T07:43:54.852Z,19.63
2023-01-04T07:46:22.179Z,17.45
2023-01-04T07:48:49.017Z,17.30
2023-01-04T07:51:16.304Z,17.58
2023-01-04T07:53:43.105Z,17.77
2023-01-04T07:56:15.132Z,18.27
2023-01-04T07:58:45.170Z,20.10
2023-01-04T08:01:15.165Z,20.42
2023-01-04T08:03:42.150Z,20.42
2023-01-04T08:06:11.659Z,22.60
2023-01-04T08:08:40.148Z,23.60
2023-01-04T08:13:34.473Z,22.17
2023-01-04T08:16:01.338Z,29.90
2023-01-04T08:18:28.071Z,28.17
2023-01-04T08:21:12.983Z,26.45
2023-01-04T08:23:40.551Z,25.85
2023-01-04T08:26:10.303Z,23.70
2023-01-04T08:28:37.752Z,28.70
2023-01-04T08:31:10.934Z,18.02
2023-01-04T08:33:38.953Z,21.33
2023-01-04T08:36:27.728Z,17.58
2023-01-04T08:39:02.007Z,22.50
2023-01-04T08:44:37.769Z,18.27
2023-01-04T08:47:05.243Z,14.60
2023-01-04T08:49:32.224Z,14.07
2023-01-04T08:51:59.063Z,17.40
2023-01-04T08:54:25.804Z,14.82
2023-01-04T08:56:52.506Z,15.13
2023-01-04T08:59:19.325Z,12.38
2023-01-04T09:01:46.968Z,17.35
2023-01-04T09:04:13.984Z,16.80
2023-01-04T09:06:40.781Z,15.60
2023-01-04T09:09:07.556Z,15.98
2023-01-04T09:11:35.316Z,16.02
2023-01-04T09:14:08.068Z,16.17
2023-01-04T09:16:36.806Z,15.13
2023-01-04T09:19:04.861Z,16.95
2023-01-04T09:21:31.729Z,17.75
2023-01-04T09:23:59.218Z,14.65
2023-01-04T09:26:26.274Z,14.82
2023-01-04T09:28:55.182Z,19.13
2023-01-04T09:31:25.509Z,16.52
2023-01-04T09:36:40.000Z,19.08
2023-01-04T09:39:06.893Z,31.42
2023-01-04T09:41:43.240Z,23.88
2023-01-04T09:44:09.960Z,19.75
2023-01-04T09:47:04.208Z,17.60
2023-01-04T09:49:37.894Z,15.93
2023-01-04T09:52:10.680Z,18.40
2023-01-04T09:55:39.114Z,17.77
2023-01-04T09:58:08.925Z,18.48
2023-01-04T10:00:44.055Z,19.70
2023-01-04T10:03:41.582Z,16.10
2023-01-04T10:06:13.149Z,20.05
2023-01-04T10:08:42.606Z,19.63
2023-01-04T10:11:22.880Z,18.75
2023-01-04T10:14:14.952Z,15.82
2023-01-04T10:17:13.756Z,17.35
2023-01-04T10:23:31.676Z,17.60
2023-01-04T10:26:14.719Z,15.15
2023-01-04T10:29:16.848Z,17.33
2023-01-04T10:31:53.571Z,17.45
2023-01-04T10:34:27.931Z,11.13
2023-01-04T10:37:11.478Z,11.15
2023-01-04T10:39:38.196Z,13.13
2023-01-04T10:42:22.908Z,12.35
2023-01-04T10:45:19.758Z,14.32
2023-01-04T10:47:55.793Z,11.45
2023-01-04T10:50:27.573Z,12.68
2023-01-04T10:53:05.232Z,14.07
2023-01-04T10:56:24.125Z,17.77
2023-01-04T10:58:44.187Z,14.43
2023-01-04T11:01:33.574Z,13.90
2023-01-04T11:04:13.721Z,11.82
2023-01-04T11:06:46.665Z,15.85
2023-01-04T11:09:25.574Z,13.20
2023-01-04T11:11:56.522Z,10.80
2023-01-04T11:14:25.483Z,11.40
2023-01-04T11:17:00.428Z,10.77
2023-01-04T11:19:29.905Z,12.52
2023-01-04T11:22:06.423Z,11.23
2023-01-04T11:24:34.757Z,11.25
2023-01-04T11:29:40.719Z,12.50
2023-01-04T11:32:44.442Z,12.00
2023-01-04T11:35:11.177Z,14.27
2023-01-04T11:37:40.397Z,15.57
2023-01-04T11:40:19.214Z,14.43
2023-01-04T11:42:48.980Z,13.77
2023-01-04T11:45:28.812Z,12.82
2023-01-04T11:47:57.968Z,11.43
2023-01-04T11:50:40.382Z,13.68
2023-01-04T11:53:35.814Z,11.70
2023-01-04T11:56:16.177Z,10.70
2023-01-04T11:58:44.832Z,12.98
2023-01-04T12:01:30.616Z,13.10
2023-01-04T12:03:59.171Z,13.13
2023-01-04T12:09:15.254Z,13.20
2023-01-04T12:11:46.509Z,10.93
2023-01-04T12:14:36.690Z,12.90
2023-01-04T12:17:07.575Z,12.07
2023-01-04T12:19:36.550Z,14.35
2023-01-04T12:22:18.418Z,10.52
2023-01-04T12:24:46.454Z,11.43
2023-01-04T12:27:17.738Z,12.63
2023-01-04T12:29:54.577Z,12.85
2023-01-04T12:32:27.545Z,13.32
2023-01-04T12:34:55.376Z,14.02
2023-01-04T12:37:49.720Z,15.93
2023-01-04T12:40:47.954Z,14.13
2023-01-04T12:43:14.779Z,12.73
2023-01-04T12:45:48.584Z,11.38
2023-01-04T12:48:46.209Z,11.25
2023-01-04T12:51:32.729Z,9.57
2023-01-04T12:54:02.807Z,10.93
2023-01-04T12:57:06.855Z,13.57
2023-01-04T12:59:54.236Z,15.32
2023-01-04T13:03:05.956Z,16.10
2023-01-04T13:08:23.620Z,11.93
2023-01-04T13:10:52.889Z,10.93
2023-01-04T13:13:32.061Z,10.25
2023-01-04T13:16:32.002Z,13.02
2023-01-04T13:19:26.513Z,12.85
2023-01-04T13:21:54.579Z,10.57
2023-01-04T13:24:28.727Z,14.77
2023-01-04T13:26:55.553Z,11.27
2023-01-04T13:29:22.260Z,11.95
2023-01-04T13:31:49.033Z,12.52
2023-01-04T13:35:01.686Z,19.42
2023-01-04T13:37:35.125Z,14.40
2023-01-04T13:40:01.963Z,15.88
2023-01-04T13:42:30.886Z,13.18
2023-01-04T13:45:20.837Z,9.93
2023-01-04T13:47:51.710Z,13.38
2023-01-04T13:50:30.585Z,12.38
2023-01-04T13:53:07.090Z,12.05
2023-01-04T13:55:37.879Z,14.75
2023-01-04T13:58:07.541Z,14.10
2023-01-04T14:00:45.549Z,14.93
2023-01-04T14:03:21.350Z,12.45
2023-01-04T14:05:51.177Z,11.52
2023-01-04T14:08:35.127Z,16.52
2023-01-04T14:11:03.062Z,12.20
2023-01-04T14:13:29.898Z,13.68
2023-01-04T14:16:12.576Z,12.23
2023-01-04T14:18:39.448Z,26.60
2023-01-04T14:21:17.694Z,26.35
2023-01-04T14:23:44.991Z,19.00
2023-01-04T14:26:35.957Z,15.35
2023-01-04T14:29:32.491Z,12.82
2023-01-04T14:32:02.014Z,13.77
2023-01-04T14:34:28.921Z,16.73
2023-01-04T14:37:03.664Z,19.00
2023-01-04T14:39:34.079Z,16.30
2023-01-04T14:42:01.649Z,16.70
2023-01-04T14:44:30.961Z,14.45
2023-01-04T14:47:00.497Z,16.08
2023-01-04T14:49:29.411Z,15.50
2023-01-04T14:51:58.510Z,13.48
2023-01-04T14:54:27.177Z,14.75
2023-01-04T14:56:55.493Z,14.50
2023-01-04T14:59:24.822Z,15.75
2023-01-04T15:01:57.464Z,21.05
2023-01-04T15:04:25.534Z,15.98
2023-01-04T15:06:53.888Z,15.40
2023-01-04T15:09:20.920Z,15.73
2023-01-04T15:11:47.814Z,14.80
2023-01-04T15:14:14.658Z,16.02
2023-01-04T15:16:41.744Z,16.90
2023-01-04T15:19:08.866Z,14.98
2023-01-04T15:21:40.867Z,15.95
2023-01-04T15:24:09.733Z,20.27
2023-01-04T15:26:39.889Z,25.75
2023-01-04T15:29:07.052Z,28.55
2023-01-04T15:31:38.803Z,31.08
2023-01-04T15:34:07.194Z,14.93
2023-01-04T15:36:38.850Z,20.95
2023-01-04T15:39:06.045Z,16.08
2023-01-04T15:41:51.591Z,19.45
2023-01-04T15:44:18.588Z,23.63
2023-01-04T15:46:45.638Z,23.13
2023-01-04T15:49:17.174Z,17.77
2023-01-04T15:51:45.149Z,22.40
2023-01-04T15:54:12.246Z,20.35
2023-01-04T15:56:39.021Z,20.48
2023-01-04T15:59:05.904Z,21.70
2023-01-04T16:01:32.740Z,28.33
2023-01-04T16:03:59.629Z,30.88
2023-01-04T16:06:26.822Z,26.73
2023-01-04T16:08:53.610Z,24.60
2023-01-04T16:11:23.289Z,23.98
2023-01-04T16:13:52.085Z,22.27
2023-01-04T16:16:21.173Z,22.27
2023-01-04T16:18:50.291Z,19.23
2023-01-04T16:21:21.898Z,22.75
2023-01-04T16:24:05.216Z,20.50
2023-01-04T16:26:36.813Z,18.75
2023-01-04T16:29:04.160Z,19.67
2023-01-04T16:31:35.797Z,20.25
2023-01-04T16:34:03.349Z,28.75
2023-01-04T16:36:30.512Z,26.75
2023-01-04T16:38:57.580Z,22.63
2023-01-04T16:41:25.196Z,22.42
2023-01-04T16:43:55.321Z,21.33
2023-01-04T16:46:26.633Z,23.90
2023-01-04T16:48:59.118Z,22.83
2023-01-04T16:51:28.149Z,21.98
2023-01-04T16:53:55.251Z,22.20
2023-01-04T16:56:24.125Z,21.13
2023-01-04T16:58:51.931Z,25.17
2023-01-04T17:01:22.761Z,24.85
2023-01-04T17:03:51.159Z,29.83
2023-01-04T17:06:21.152Z,24.08
2023-01-04T17:08:49.601Z,21.15
2023-01-04T17:14:06.886Z,13.45
2023-01-04T17:16:35.159Z,13.45
2023-01-04T17:19:02.735Z,14.68
2023-01-04T17:21:34.924Z,14.20
2023-01-04T17:24:03.517Z,13.35
2023-01-04T17:26:32.056Z,18.95
2023-01-04T17:31:41.329Z,6.05
2023-01-04T17:34:09.954Z,5.93
2023-01-04T17:36:37.119Z,5.25
2023-01-04T17:39:03.673Z,4.18
2023-01-04T17:41:30.954Z,4.40
2023-01-04T17:49:17.778Z,5.20
2023-01-04T17:51:48.350Z,4.28
2023-01-04T17:54:15.435Z,6.05
2023-01-04T17:56:42.049Z,4.28
2023-01-04T17:59:10.120Z,4.60
2023-01-04T18:06:31.348Z,6.55
2023-01-04T18:08:58.391Z,5.35
2023-01-04T18:11:25.422Z,4.40
2023-01-04T18:13:53.206Z,5.28
2023-01-04T18:18:51.318Z,4.28
2023-01-04T18:21:28.355Z,4.00
2023-01-04T18:24:34.307Z,4.57
2023-01-04T18:27:19.061Z,4.53
2023-01-04T18:29:30.112Z,3.97
2023-01-04T18:31:56.693Z,4.13
2023-01-04T18:34:26.559Z,4.65
2023-01-04T18:36:53.523Z,4.40
2023-01-04T18:39:20.546Z,4.22
2023-01-04T18:41:47.393Z,4.80
2023-01-04T18:47:02.192Z,5.10
2023-01-04T18:49:30.833Z,5.40
2023-01-04T18:51:57.413Z,5.13
2023-01-04T18:54:24.115Z,5.00
2023-01-04T18:56:53.180Z,5.22
2023-01-04T18:59:24.117Z,4.60
2023-01-04T19:01:50.874Z,4.82
2023-01-04T19:04:19.067Z,4.57
2023-01-04T19:06:45.743Z,4.63
2023-01-04T19:09:12.369Z,4.55
2023-01-04T19:11:38.937Z,7.43
2023-01-04T19:14:05.899Z,5.57
2023-01-04T19:16:32.682Z,6.82
2023-01-04T19:18:59.985Z,5.03
2023-01-04T19:21:26.876Z,5.07
2023-01-04T19:23:53.911Z,4.85
2023-01-04T19:26:20.745Z,4.40
2023-01-04T19:28:47.845Z,4.60
2023-01-04T19:31:14.988Z,4.00
2023-01-04T19:33:41.771Z,4.68
2023-01-04T19:36:10.352Z,4.70
2023-01-04T19:38:37.591Z,4.40
2023-01-04T19:41:05.224Z,4.70
2023-01-04T19:43:31.905Z,5.15
2023-01-04T19:45:58.575Z,4.30
2023-01-04T19:48:25.273Z,4.90
2023-01-04T19:51:02.577Z,5.07
2023-01-04T19:53:29.130Z,4.40
2023-01-04T19:55:56.266Z,4.90
2023-01-04T19:58:22.866Z,4.68
2023-01-04T20:00:54.495Z,8.15
2023-01-04T20:03:22.549Z,5.78
2023-01-04T20:05:49.834Z,5.45
